createdAt,value
2022-09-14T00:01:28.920Z,1.40
2022-09-14T00:04:00.142Z,1.65
2022-09-14T00:06:28.959Z,1.35
2022-09-14T00:08:58.273Z,1.60
2022-09-14T00:11:28.216Z,1.52
2022-09-14T00:13:56.936Z,2.08
2022-09-14T00:16:31.081Z,1.63
2022-09-14T00:19:06.418Z,1.85
2022-09-14T00:21:36.871Z,1.20
2022-09-14T00:24:05.390Z,2.35
2022-09-14T00:26:33.295Z,1.30
2022-09-14T00:29:04.758Z,1.33
2022-09-14T00:31:38.141Z,1.33
2022-09-14T00:34:08.696Z,1.80
2022-09-14T00:36:40.328Z,0.85
2022-09-14T00:39:08.815Z,1.40
2022-09-14T00:41:39.138Z,0.90
2022-09-14T00:44:12.596Z,1.02
2022-09-14T00:46:42.622Z,1.23
2022-09-14T00:49:52.110Z,1.63
2022-09-14T00:52:25.785Z,2.20
2022-09-14T00:55:03.949Z,1.00
2022-09-14T00:57:37.131Z,0.85
2022-09-14T01:00:09.203Z,1.65
2022-09-14T01:05:04.996Z,1.35
2022-09-14T01:08:03.605Z,1.30
2022-09-14T01:11:04.514Z,1.50
2022-09-14T01:13:48.817Z,1.10
2022-09-14T01:16:34.303Z,1.10
2022-09-14T01:19:10.550Z,1.13
2022-09-14T01:21:41.311Z,0.95
2022-09-14T01:24:17.768Z,0.85
2022-09-14T01:27:12.599Z,0.80
2022-09-14T01:29:49.774Z,1.30
2022-09-14T01:32:32.816Z,0.85
2022-09-14T01:35:38.318Z,0.55
2022-09-14T01:38:30.367Z,0.90
2022-09-14T01:41:01.798Z,0.80
2022-09-14T01:43:36.647Z,1.13
2022-09-14T01:46:16.397Z,0.65
2022-09-14T01:48:51.072Z,1.38
2022-09-14T01:51:24.093Z,1.10
2022-09-14T01:54:00.037Z,0.70
2022-09-14T01:56:35.367Z,1.50
2022-09-14T01:59:10.690Z,0.60
2022-09-14T02:01:48.488Z,0.90
2022-09-14T02:04:26.844Z,0.65
2022-09-14T02:06:56.555Z,1.00
2022-09-14T02:09:26.880Z,2.03
2022-09-14T02:11:56.056Z,0.60
2022-09-14T02:14:23.904Z,0.77
2022-09-14T02:16:51.014Z,1.20
2022-09-14T02:19:23.564Z,0.73
2022-09-14T02:21:51.530Z,0.93
2022-09-14T02:24:19.140Z,0.70
2022-09-14T02:26:49.861Z,1.60
2022-09-14T02:29:17.319Z,0.73
2022-09-14T02:31:55.232Z,0.70
2022-09-14T02:34:47.108Z,0.80
2022-09-14T02:37:27.755Z,1.13
2022-09-14T02:40:17.498Z,1.00
2022-09-14T02:43:03.633Z,0.80
2022-09-14T02:45:43.514Z,0.63
2022-09-14T02:48:23.155Z,0.68
2022-09-14T02:51:13.755Z,0.73
2022-09-14T02:53:54.319Z,0.70
2022-09-14T02:56:22.394Z,1.25
2022-09-14T02:58:49.908Z,0.73
2022-09-14T03:01:20.242Z,0.95
2022-09-14T03:03:48.083Z,0.83
2022-09-14T03:06:15.694Z,1.45
2022-09-14T03:08:43.660Z,1.42
2022-09-14T03:11:11.297Z,0.60
2022-09-14T03:13:38.863Z,0.82
2022-09-14T03:16:07.956Z,0.85
2022-09-14T03:18:36.107Z,0.95
2022-09-14T03:21:17.588Z,0.75
2022-09-14T03:23:50.491Z,1.20
2022-09-14T03:26:20.170Z,0.88
2022-09-14T03:28:56.079Z,0.90
2022-09-14T03:31:23.982Z,1.42
2022-09-14T03:33:56.892Z,1.38
2022-09-14T03:36:26.251Z,1.13
2022-09-14T03:38:55.469Z,0.95
2022-09-14T03:41:23.998Z,1.42
2022-09-14T03:43:51.862Z,0.88
2022-09-14T03:46:22.936Z,0.93
2022-09-14T03:48:50.801Z,1.60
2022-09-14T03:51:18.076Z,1.20
2022-09-14T03:53:46.479Z,1.05
2022-09-14T03:56:19.539Z,2.97
2022-09-14T03:58:48.736Z,1.00
2022-09-14T04:01:18.434Z,0.70
2022-09-14T04:03:46.309Z,0.85
2022-09-14T04:06:16.126Z,1.15
2022-09-14T04:08:44.713Z,0.95
2022-09-14T04:11:19.190Z,1.00
2022-09-14T04:13:47.427Z,0.82
2022-09-14T04:16:15.999Z,1.27
2022-09-14T04:18:43.871Z,0.90
2022-09-14T04:21:17.583Z,1.10
2022-09-14T04:26:32.899Z,1.10
2022-09-14T04:29:00.094Z,0.98
2022-09-14T04:31:27.457Z,1.05
2022-09-14T04:33:57.172Z,1.13
2022-09-14T04:36:29.500Z,1.65
2022-09-14T04:38:59.271Z,1.20
2022-09-14T04:41:27.779Z,0.65
2022-09-14T04:43:56.328Z,1.20
2022-09-14T04:46:26.884Z,1.80
2022-09-14T04:48:54.262Z,1.10
2022-09-14T04:51:23.931Z,0.90
2022-09-14T04:53:53.871Z,1.20
2022-09-14T04:56:23.053Z,0.80
2022-09-14T04:58:52.764Z,0.65
2022-09-14T05:01:25.800Z,1.08
2022-09-14T05:03:53.917Z,0.50
2022-09-14T05:06:24.956Z,1.10
2022-09-14T05:08:53.606Z,0.70
2022-09-14T05:11:23.659Z,0.60
2022-09-14T05:13:52.077Z,0.70
2022-09-14T05:16:22.006Z,0.95
2022-09-14T05:18:50.557Z,0.75
2022-09-14T05:21:19.839Z,1.10
2022-09-14T05:23:47.310Z,0.80
2022-09-14T05:26:15.111Z,0.60
2022-09-14T05:28:42.531Z,0.63
2022-09-14T05:31:13.176Z,0.57
2022-09-14T05:33:40.512Z,0.50
2022-09-14T05:36:09.049Z,0.70
2022-09-14T05:38:38.483Z,0.82
2022-09-14T05:41:07.927Z,0.47
2022-09-14T05:43:35.363Z,0.57
2022-09-14T05:46:05.132Z,0.80
2022-09-14T05:48:34.311Z,0.70
2022-09-14T05:51:04.294Z,0.80
2022-09-14T05:53:31.679Z,0.60
2022-09-14T05:56:08.464Z,1.02
2022-09-14T05:58:37.088Z,1.02
2022-09-14T06:01:18.868Z,0.57
2022-09-14T06:03:47.838Z,0.40
2022-09-14T06:06:17.196Z,0.63
2022-09-14T06:08:45.023Z,0.30
2022-09-14T06:11:17.690Z,0.77
2022-09-14T06:13:44.936Z,0.90
2022-09-14T06:16:14.845Z,0.70
2022-09-14T06:18:44.513Z,0.77
2022-09-14T06:21:15.406Z,0.60
2022-09-14T06:23:43.745Z,0.40
2022-09-14T06:26:12.637Z,0.40
2022-09-14T06:28:40.263Z,0.40
2022-09-14T06:31:10.023Z,0.32
2022-09-14T06:33:37.447Z,0.50
2022-09-14T06:36:09.756Z,0.50
2022-09-14T06:38:37.015Z,0.80
2022-09-14T06:41:07.000Z,0.40
2022-09-14T06:43:38.881Z,0.68
2022-09-14T06:46:09.963Z,0.45
2022-09-14T06:48:42.055Z,0.60
2022-09-14T06:51:17.785Z,0.68
2022-09-14T06:53:46.225Z,0.65
2022-09-14T06:56:14.098Z,0.40
2022-09-14T06:58:42.129Z,0.50
2022-09-14T07:01:15.262Z,0.43
2022-09-14T07:03:44.111Z,0.45
2022-09-14T07:06:14.546Z,0.30
2022-09-14T07:08:43.392Z,0.60
2022-09-14T07:11:13.105Z,0.60
2022-09-14T07:13:41.005Z,0.40
2022-09-14T07:16:08.241Z,0.55
2022-09-14T07:18:36.011Z,0.47
2022-09-14T07:21:09.027Z,0.28
2022-09-14T07:23:38.512Z,0.20
2022-09-14T07:26:21.424Z,0.40
2022-09-14T07:28:56.263Z,0.35
2022-09-14T07:31:25.088Z,0.20
2022-09-14T07:33:58.243Z,0.57
2022-09-14T07:36:29.554Z,0.25
2022-09-14T07:39:00.130Z,0.30
2022-09-14T07:41:29.182Z,0.30
2022-09-14T07:44:00.443Z,0.38
2022-09-14T07:46:29.774Z,0.40
2022-09-14T07:48:59.124Z,0.35
2022-09-14T07:51:28.431Z,0.52
2022-09-14T07:53:57.451Z,0.82
2022-09-14T07:56:25.958Z,0.45
2022-09-14T07:59:07.063Z,0.40
2022-09-14T08:01:43.975Z,0.43
2022-09-14T08:04:11.204Z,1.00
2022-09-14T08:06:39.135Z,0.57
2022-09-14T08:09:08.663Z,0.50
2022-09-14T08:11:36.436Z,0.63
2022-09-14T08:14:07.097Z,0.82
2022-09-14T08:16:34.947Z,0.50
2022-09-14T08:19:04.603Z,0.68
2022-09-14T08:21:32.934Z,0.60
2022-09-14T08:24:02.525Z,0.65
2022-09-14T08:26:30.148Z,0.65
2022-09-14T08:28:59.860Z,1.13
2022-09-14T08:31:28.961Z,0.43
2022-09-14T08:33:59.614Z,0.50
2022-09-14T08:36:29.695Z,0.30
2022-09-14T08:38:57.741Z,1.07
2022-09-14T08:41:32.962Z,0.70
2022-09-14T08:44:11.556Z,0.50
2022-09-14T08:47:09.438Z,0.40
2022-09-14T08:49:52.904Z,0.77
2022-09-14T08:52:24.536Z,0.80
2022-09-14T08:55:00.993Z,0.50
2022-09-14T08:57:33.214Z,0.50
2022-09-14T09:00:12.777Z,0.50
2022-09-14T09:03:19.650Z,0.28
2022-09-14T09:06:08.059Z,0.35
2022-09-14T09:08:47.931Z,0.40
2022-09-14T09:11:19.173Z,0.20
2022-09-14T09:13:49.094Z,0.30
2022-09-14T09:16:21.091Z,0.40
2022-09-14T09:18:59.261Z,0.30
2022-09-14T09:21:35.576Z,0.50
2022-09-14T09:24:28.720Z,0.45
2022-09-14T09:26:56.194Z,0.50
2022-09-14T09:29:23.469Z,0.43
2022-09-14T09:32:19.412Z,0.40
2022-09-14T09:35:06.581Z,0.40
2022-09-14T09:37:49.555Z,0.30
2022-09-14T09:40:25.319Z,0.38
2022-09-14T09:43:24.447Z,0.57
2022-09-14T09:46:08.276Z,0.38
2022-09-14T09:48:38.753Z,0.30
2022-09-14T09:51:33.150Z,0.52
2022-09-14T09:54:31.088Z,0.32
2022-09-14T09:57:01.188Z,0.30
2022-09-14T09:59:38.074Z,0.30
2022-09-14T10:02:32.149Z,0.20
2022-09-14T10:05:02.910Z,0.75
2022-09-14T10:07:34.666Z,0.25
2022-09-14T10:10:06.848Z,0.40
2022-09-14T10:12:36.279Z,0.20
2022-09-14T10:15:15.525Z,0.20
2022-09-14T10:18:01.497Z,0.40
2022-09-14T10:20:29.184Z,0.40
2022-09-14T10:22:56.442Z,0.30
2022-09-14T10:25:26.288Z,0.68
2022-09-14T10:27:56.404Z,0.40
2022-09-14T10:30:26.885Z,0.50
2022-09-14T10:33:03.908Z,0.55
2022-09-14T10:35:49.310Z,0.30
2022-09-14T10:38:34.775Z,0.40
2022-09-14T10:41:26.294Z,0.50
2022-09-14T10:44:22.933Z,0.50
2022-09-14T10:47:10.471Z,0.40
2022-09-14T10:49:41.076Z,0.57
2022-09-14T10:52:45.345Z,0.47
2022-09-14T10:55:53.958Z,0.55
2022-09-14T10:58:33.833Z,0.40
2022-09-14T11:01:13.412Z,0.35
2022-09-14T11:04:04.445Z,0.82
2022-09-14T11:06:50.227Z,0.63
2022-09-14T11:09:55.748Z,0.98
2022-09-14T11:12:40.319Z,0.63
2022-09-14T11:15:36.875Z,0.40
2022-09-14T11:18:32.589Z,0.60
2022-09-14T11:21:14.918Z,0.40
2022-09-14T11:24:12.034Z,0.55
2022-09-14T11:27:16.222Z,0.40
2022-09-14T11:29:49.412Z,0.50
2022-09-14T11:32:43.135Z,0.40
2022-09-14T11:35:28.501Z,0.70
2022-09-14T11:38:24.632Z,0.30
2022-09-14T11:41:09.200Z,0.20
2022-09-14T11:44:01.674Z,0.40
2022-09-14T11:46:42.477Z,0.52
2022-09-14T11:49:39.766Z,0.37
2022-09-14T11:52:19.530Z,0.65
2022-09-14T11:54:48.579Z,0.30
2022-09-14T11:57:27.135Z,0.50
2022-09-14T11:59:59.801Z,0.30
2022-09-14T12:02:27.761Z,0.38
2022-09-14T12:05:07.294Z,0.30
2022-09-14T12:07:46.151Z,0.50
2022-09-14T12:10:18.544Z,0.30
2022-09-14T12:12:58.162Z,0.52
2022-09-14T12:15:25.289Z,0.30
2022-09-14T12:18:14.139Z,0.45
2022-09-14T12:20:45.859Z,0.20
2022-09-14T12:23:39.288Z,0.20
2022-09-14T12:26:06.643Z,0.20
2022-09-14T12:28:35.113Z,0.43
2022-09-14T12:31:05.240Z,0.30
2022-09-14T12:33:32.886Z,0.50
2022-09-14T12:36:03.349Z,0.35
2022-09-14T12:38:30.457Z,0.30
2022-09-14T12:41:22.969Z,0.65
2022-09-14T12:43:50.669Z,0.30
2022-09-14T12:46:21.105Z,0.47
2022-09-14T12:48:48.473Z,0.40
2022-09-14T12:51:32.630Z,0.40
2022-09-14T12:54:08.799Z,0.65
2022-09-14T12:56:58.071Z,0.60
2022-09-14T12:59:42.156Z,0.30
2022-09-14T13:02:43.701Z,0.50
2022-09-14T13:05:24.812Z,0.30
2022-09-14T13:07:53.668Z,0.63
2022-09-14T13:10:31.069Z,0.65
2022-09-14T13:13:01.305Z,0.43
2022-09-14T13:15:34.844Z,0.52
2022-09-14T13:18:24.912Z,0.60
2022-09-14T13:20:56.437Z,0.65
2022-09-14T13:23:40.983Z,0.50
2022-09-14T13:26:28.880Z,0.50
2022-09-14T13:28:59.579Z,0.40
2022-09-14T13:31:39.387Z,0.95
2022-09-14T13:34:14.200Z,0.45
2022-09-14T13:36:43.580Z,1.00
2022-09-14T13:39:25.860Z,0.40
2022-09-14T13:41:54.734Z,0.60
2022-09-14T13:44:36.897Z,0.43
2022-09-14T13:47:05.666Z,0.50
2022-09-14T13:49:35.501Z,0.60
2022-09-14T13:52:49.758Z,0.68
2022-09-14T13:55:26.224Z,0.82
2022-09-14T13:58:16.501Z,0.98
2022-09-14T14:01:03.859Z,0.68
2022-09-14T14:03:38.008Z,0.90
2022-09-14T14:06:23.996Z,0.80
2022-09-14T14:08:56.425Z,0.50
2022-09-14T14:11:36.742Z,0.82
2022-09-14T14:14:31.533Z,0.70
2022-09-14T14:17:24.744Z,0.40
2022-09-14T14:19:54.398Z,0.80
2022-09-14T14:22:27.860Z,0.60
2022-09-14T14:25:12.985Z,0.65
2022-09-14T14:27:47.638Z,0.75
2022-09-14T14:30:19.076Z,0.50
2022-09-14T14:32:51.700Z,0.80
2022-09-14T14:35:22.632Z,0.40
2022-09-14T14:37:50.971Z,0.57
2022-09-14T14:40:19.395Z,0.70
2022-09-14T14:42:47.270Z,0.80
2022-09-14T14:45:25.056Z,0.55
2022-09-14T14:47:53.804Z,0.52
2022-09-14T14:50:26.904Z,0.88
2022-09-14T14:52:54.698Z,0.90
2022-09-14T14:55:23.290Z,0.60
2022-09-14T14:57:51.835Z,0.68
2022-09-14T15:00:24.474Z,0.50
2022-09-14T15:02:52.053Z,0.98
2022-09-14T15:05:19.784Z,0.70
2022-09-14T15:07:49.827Z,0.70
2022-09-14T15:10:18.703Z,0.95
2022-09-14T15:12:46.435Z,0.73
2022-09-14T15:15:15.740Z,1.10
2022-09-14T15:17:43.426Z,0.90
2022-09-14T15:20:12.093Z,0.90
2022-09-14T15:22:41.439Z,0.90
2022-09-14T15:25:10.529Z,1.02
2022-09-14T15:27:37.724Z,1.05
2022-09-14T15:30:06.934Z,1.40
2022-09-14T15:32:34.936Z,0.88
2022-09-14T15:35:02.864Z,0.85
2022-09-14T15:37:30.768Z,1.20
2022-09-14T15:39:58.753Z,1.20
2022-09-14T15:42:27.227Z,1.27
2022-09-14T15:44:54.423Z,0.75
2022-09-14T15:47:21.836Z,0.75
2022-09-14T15:49:52.787Z,0.55
2022-09-14T15:52:20.939Z,0.77
2022-09-14T15:54:49.318Z,0.82
2022-09-14T15:57:16.513Z,1.20
2022-09-14T15:59:43.736Z,0.60
2022-09-14T16:02:12.534Z,0.85
2022-09-14T16:04:40.235Z,1.02
2022-09-14T16:07:11.367Z,1.00
2022-09-14T16:09:40.060Z,1.05
2022-09-14T16:12:11.873Z,1.10
2022-09-14T16:14:39.383Z,1.33
2022-09-14T16:17:08.304Z,0.68
2022-09-14T16:19:35.885Z,1.17
2022-09-14T16:22:04.244Z,1.35
2022-09-14T16:24:32.295Z,0.65
2022-09-14T16:27:00.047Z,0.80
2022-09-14T16:29:27.518Z,0.68
2022-09-14T16:31:55.026Z,1.88
2022-09-14T16:34:25.727Z,1.15
2022-09-14T16:36:53.940Z,1.98
2022-09-14T16:39:27.109Z,1.63
2022-09-14T16:41:55.956Z,0.90
2022-09-14T16:44:25.746Z,1.38
2022-09-14T16:46:54.754Z,1.25
2022-09-14T16:49:27.085Z,1.50
2022-09-14T16:51:56.888Z,1.05
2022-09-14T16:54:25.772Z,1.40
2022-09-14T16:56:57.050Z,1.90
2022-09-14T16:59:24.465Z,1.92
2022-09-14T17:01:54.602Z,1.85
2022-09-14T17:04:23.779Z,1.37
2022-09-14T17:06:52.258Z,1.15
2022-09-14T17:09:23.573Z,1.17
2022-09-14T17:11:51.184Z,1.10
2022-09-14T17:14:21.337Z,1.13
2022-09-14T17:16:49.517Z,1.20
2022-09-14T17:19:17.720Z,1.30
2022-09-14T17:21:46.580Z,1.27
2022-09-14T17:24:15.440Z,1.58
2022-09-14T17:26:43.419Z,1.40
2022-09-14T17:29:11.545Z,1.52
2022-09-14T17:31:42.010Z,1.63
2022-09-14T17:34:11.537Z,1.30
2022-09-14T17:36:39.869Z,1.70
2022-09-14T17:39:11.780Z,1.58
2022-09-14T17:41:42.872Z,1.13
2022-09-14T17:44:12.783Z,0.83
2022-09-14T17:46:49.551Z,1.45
2022-09-14T17:49:21.165Z,1.17
2022-09-14T17:51:49.413Z,1.40
2022-09-14T17:54:18.304Z,1.33
2022-09-14T17:56:46.053Z,1.73
2022-09-14T17:59:16.989Z,1.27
2022-09-14T18:01:44.293Z,2.00
2022-09-14T18:04:14.102Z,1.20
2022-09-14T18:06:44.299Z,1.45
2022-09-14T18:09:14.934Z,1.77
2022-09-14T18:11:42.807Z,1.40
2022-09-14T18:14:13.104Z,1.70
2022-09-14T18:16:41.913Z,1.88
2022-09-14T18:19:10.238Z,2.35
2022-09-14T18:21:37.647Z,2.03
2022-09-14T18:24:05.591Z,2.22
2022-09-14T18:26:33.375Z,1.75
2022-09-14T18:29:00.769Z,1.52
2022-09-14T18:31:28.093Z,2.78
2022-09-14T18:33:59.586Z,2.10
2022-09-14T18:36:29.506Z,2.30
2022-09-14T18:38:58.746Z,2.33
2022-09-14T18:41:29.864Z,2.65
2022-09-14T18:43:58.626Z,3.08
2022-09-14T18:46:28.399Z,3.35
2022-09-14T18:48:58.814Z,3.33
2022-09-14T18:51:27.597Z,4.38
2022-09-14T18:54:03.792Z,3.53
2022-09-14T18:56:34.749Z,4.07
2022-09-14T18:59:04.493Z,3.85
2022-09-14T19:01:33.717Z,3.88
2022-09-14T19:04:06.120Z,4.25
2022-09-14T19:06:35.479Z,4.20
2022-09-14T19:09:03.232Z,4.25
2022-09-14T19:11:31.999Z,4.10
2022-09-14T19:14:09.535Z,4.20
2022-09-14T19:16:41.361Z,3.72
2022-09-14T19:19:12.929Z,3.80
2022-09-14T19:21:40.912Z,2.90
2022-09-14T19:24:12.176Z,2.63
2022-09-14T19:26:45.321Z,2.80
2022-09-14T19:29:14.871Z,2.22
2022-09-14T19:31:42.764Z,2.20
2022-09-14T19:34:10.589Z,2.38
2022-09-14T19:36:37.862Z,1.80
2022-09-14T19:39:05.424Z,2.17
2022-09-14T19:41:34.017Z,2.05
2022-09-14T19:44:03.248Z,2.10
2022-09-14T19:46:33.742Z,2.20
2022-09-14T19:49:00.939Z,2.75
2022-09-14T19:51:30.392Z,2.42
2022-09-14T19:54:00.573Z,2.35
2022-09-14T19:56:30.507Z,1.95
2022-09-14T19:58:59.874Z,1.60
2022-09-14T20:01:30.342Z,2.13
2022-09-14T20:03:58.182Z,2.13
2022-09-14T20:06:31.670Z,2.22
2022-09-14T20:09:05.450Z,1.90
2022-09-14T20:11:35.175Z,2.05
2022-09-14T20:14:05.074Z,1.70
2022-09-14T20:16:37.550Z,1.48
2022-09-14T20:19:08.235Z,1.92
2022-09-14T20:21:38.805Z,1.50
2022-09-14T20:24:17.146Z,1.37
2022-09-14T20:26:49.960Z,1.55
2022-09-14T20:29:19.789Z,1.50
2022-09-14T20:31:47.522Z,1.60
2022-09-14T20:34:16.659Z,1.70
2022-09-14T20:36:44.178Z,1.30
2022-09-14T20:39:11.381Z,1.67
2022-09-14T20:41:39.000Z,1.52
2022-09-14T20:44:06.971Z,1.08
2022-09-14T20:46:40.416Z,1.30
2022-09-14T20:49:12.879Z,1.58
2022-09-14T20:51:41.233Z,1.42
2022-09-14T20:54:11.969Z,1.90
2022-09-14T20:56:39.893Z,1.75
2022-09-14T20:59:09.970Z,1.30
2022-09-14T21:01:42.280Z,1.80
2022-09-14T21:04:12.836Z,2.20
2022-09-14T21:06:43.227Z,2.00
2022-09-14T21:09:12.049Z,1.60
2022-09-14T21:11:40.263Z,1.83
2022-09-14T21:14:07.955Z,2.42
2022-09-14T21:16:37.423Z,1.48
2022-09-14T21:19:08.066Z,1.77
2022-09-14T21:21:35.605Z,1.77
2022-09-14T21:24:04.725Z,1.63
2022-09-14T21:26:35.590Z,1.75
2022-09-14T21:29:08.194Z,1.45
2022-09-14T21:31:37.701Z,1.70
2022-09-14T21:34:07.328Z,2.08
2022-09-14T21:36:40.298Z,1.42
2022-09-14T21:39:10.770Z,1.92
2022-09-14T21:41:39.449Z,1.00
2022-09-14T21:44:06.677Z,1.52
2022-09-14T21:46:34.982Z,1.50
2022-09-14T21:49:02.279Z,1.33
2022-09-14T21:51:31.808Z,1.35
2022-09-14T21:54:05.364Z,1.20
2022-09-14T21:56:36.828Z,1.15
2022-09-14T21:59:07.686Z,1.02
2022-09-14T22:01:35.434Z,1.00
2022-09-14T22:04:03.151Z,0.90
2022-09-14T22:06:32.134Z,1.17
2022-09-14T22:09:01.166Z,1.48
2022-09-14T22:11:32.809Z,1.33
2022-09-14T22:14:06.570Z,0.77
2022-09-14T22:16:35.862Z,1.20
2022-09-14T22:19:05.877Z,1.55
2022-09-14T22:21:36.599Z,1.13
2022-09-14T22:24:08.078Z,1.15
2022-09-14T22:26:36.184Z,1.10
2022-09-14T22:29:04.455Z,1.60
2022-09-14T22:31:33.082Z,1.30
2022-09-14T22:34:01.300Z,1.23
2022-09-14T22:36:29.125Z,1.38
2022-09-14T22:38:57.821Z,1.10
2022-09-14T22:41:26.171Z,0.90
2022-09-14T22:43:54.492Z,0.95
2022-09-14T22:46:23.202Z,1.33
2022-09-14T22:48:51.721Z,0.93
2022-09-14T22:51:22.140Z,0.82
2022-09-14T22:53:50.130Z,1.08
2022-09-14T22:56:24.046Z,1.00
2022-09-14T22:58:51.919Z,1.00
2022-09-14T23:01:29.701Z,0.75
2022-09-14T23:04:00.239Z,1.10
2022-09-14T23:06:29.540Z,0.77
2022-09-14T23:08:57.913Z,0.80
2022-09-14T23:11:25.315Z,1.00
2022-09-14T23:13:54.025Z,0.85
2022-09-14T23:16:26.139Z,0.98
2022-09-14T23:18:58.708Z,0.65
2022-09-14T23:21:26.889Z,1.50
2022-09-14T23:24:00.323Z,1.25
2022-09-14T23:26:28.559Z,1.02
2022-09-14T23:29:02.876Z,1.40
2022-09-14T23:31:32.199Z,1.10
2022-09-14T23:34:02.057Z,1.10
2022-09-14T23:36:29.652Z,0.85
2022-09-14T23:38:57.436Z,1.10
2022-09-14T23:41:26.057Z,1.40
2022-09-14T23:43:53.629Z,0.60
2022-09-14T23:46:21.330Z,1.02
2022-09-14T23:48:49.210Z,1.10
2022-09-14T23:51:16.843Z,1.33
2022-09-14T23:53:44.077Z,0.93
2022-09-14T23:56:12.001Z,1.05
2022-09-14T23:58:41.467Z,1.10
